Data/ora PM10 PM2.5 Temperatura Umidità Pressione Campioni Min ciclo Max ciclo Segnale Wifi
                                       
22/02/2024 09:12:19 8.88 4.22 13.66 73.68 1009.68 5119169 27 20054 -67
22/02/2024 09:09:53 12.45 4.38 13.32 74.46 1009.38 5118003 27 20474 -67
22/02/2024 09:07:28 8.77 3.85 13.23 73.16 1009.31 5118888 27 20051 -67
22/02/2024 09:05:02 11.98 5.07 13.23 73.33 1009.46 5118184 27 20085 -67
22/02/2024 09:02:36 12.02 5.88 13.05 73.51 1009.63 5118249 27 20061 -67
22/02/2024 09:00:10 12.25 5.50 12.79 73.78 1009.57 5119062 27 20056 -67
22/02/2024 08:57:41 10.48 4.97 12.77 72.93 1009.64 5118005 27 20085 -67
22/02/2024 08:55:14 12.10 5.07 12.56 73.34 1009.59 5118778 27 20047 -67
22/02/2024 08:52:48 10.88 5.28 12.38 73.39 1009.67 5119027 27 20590 -67
22/02/2024 08:50:23 9.88 4.25 12.02 73.98 1009.63 5117932 27 20047 -67
22/02/2024 08:47:56 9.60 3.88 11.78 73.82 1009.65 5117479 27 20043 -67
22/02/2024 08:45:28 8.40 4.50 11.76 72.75 1009.74 5119761 27 20509 -67
22/02/2024 08:42:59 8.45 4.25 11.67 72.43 1009.52 5120162 27 20214 -67
22/02/2024 08:40:34 10.18 4.32 11.80 72.97 1009.70 5119996 27 20050 -67
22/02/2024 08:38:08 11.70 5.10 11.54 72.58 1009.48 5118966 27 20402 -67
22/02/2024 08:35:42 8.68 3.95 11.34 71.91 1009.25 5117098 27 20084 -67
22/02/2024 08:33:16 8.27 4.00 11.57 73.10 1009.84 5118341 27 20044 -67
22/02/2024 08:30:49 7.90 3.60 11.37 72.33 1009.69 5118054 27 20050 -67
22/02/2024 08:28:22 8.32 3.78 11.13 72.92 1009.40 5118360 27 20533 -67
22/02/2024 08:25:55 11.13 4.40 11.00 73.04 1009.49 5118412 27 20043 -67
22/02/2024 08:23:29 9.65 3.92 10.91 72.92 1009.51 5119386 27 20123 -67
22/02/2024 08:21:03 10.85 5.13 10.95 73.33 1009.79 5120283 27 20393 -67
22/02/2024 08:18:36 6.80 3.42 10.91 72.95 1009.72 5119093 27 20050 -67
22/02/2024 08:16:11 13.98 4.43 10.62 75.20 1009.54 5119266 27 20051 -67
22/02/2024 08:13:45 12.60 5.10 10.63 74.28 1009.85 5118087 27 20191 -67
22/02/2024 08:11:19 9.63 4.50 10.43 74.31 1009.43 5117070 27 20063 -67
22/02/2024 08:08:54 9.30 3.22 10.50 74.96 1009.56 5117500 27 20359 -67
22/02/2024 08:06:28 12.77 5.15 10.25 76.65 1009.55 5119617 27 20089 -67
22/02/2024 08:03:59 16.13 4.85 10.13 76.47 1009.63 5118893 27 20049 -68
22/02/2024 08:01:34 11.02 5.40 10.21 76.64 1009.93 5119435 27 20391 -67
22/02/2024 07:59:08 11.88 5.28 10.19 77.31 1009.90 5118870 27 20447 -67
22/02/2024 07:56:41 12.15 5.00 9.98 77.93 1009.66 5118241 27 20528 -67
22/02/2024 07:54:16 11.98 5.00 9.97 78.49 1009.85 5119450 27 20054 -66
22/02/2024 07:51:50 17.15 5.93 9.85 78.72 1009.85 5117403 27 20055 -66
22/02/2024 07:49:24 11.32 5.20 9.68 79.29 1009.62 5117487 27 20039 -66
22/02/2024 07:46:59 9.02 4.20 9.82 79.29 1009.83 5118928 27 20054 -66
22/02/2024 07:44:33 13.55 6.03 9.68 78.67 1009.56 5119559 27 20047 -67
22/02/2024 07:42:07 11.93 5.32 9.76 79.22 1009.60 5119131 27 20054 -67
22/02/2024 07:39:41 8.50 3.60 10.03 79.44 1009.82 5119514 27 20146 -67
22/02/2024 07:37:15 10.50 5.53 9.85 79.51 1009.60 5118784 27 20134 -67
22/02/2024 07:34:48 12.13 6.10 9.84 79.59 1009.53 5115257 28 20563 -66
22/02/2024 07:32:22 12.48 5.80 9.98 79.26 1009.60 5115998 28 20112 -68
22/02/2024 07:29:55 13.68 5.35 10.05 80.85 1009.71 5114760 28 20348 -67
22/02/2024 07:27:29 13.63 5.70 9.79 81.20 1009.60 5114762 28 20054 -65
22/02/2024 07:25:02 14.13 5.93 9.59 81.54 1009.78 5115677 28 20051 -65
22/02/2024 07:22:36 13.48 5.80 9.60 80.70 1009.95 5115290 27 20047 -65
22/02/2024 07:20:11 14.52 5.55 9.57 80.98 1009.90 5114376 27 20433 -65
22/02/2024 07:17:45 12.02 5.72 9.63 81.68 1009.90 5113863 27 20078 -65
22/02/2024 07:15:19 10.57 5.72 9.49 82.04 1009.57 5115157 27 20053 -66
22/02/2024 07:12:54 13.07 6.18 9.65 83.13 1009.77 5115680 27 20043 -65
22/02/2024 07:10:28 12.38 6.28 9.49 83.11 1009.88 5115095 27 20047 -65
22/02/2024 07:08:01 12.93 6.25 9.29 82.63 1009.89 5114688 27 20059 -65
22/02/2024 07:05:35 12.82 6.90 9.16 82.67 1009.85 5116015 27 20079 -65
22/02/2024 07:03:09 13.07 6.28 9.11 82.59 1009.89 5115311 27 20058 -65
22/02/2024 07:00:43 13.70 6.65 8.93 82.55 1009.55 5115941 27 20044 -65
22/02/2024 06:58:17 14.68 6.80 9.11 82.83 1009.90 5115164 27 20501 -65
22/02/2024 06:55:50 12.40 6.43 8.92 83.60 1009.53 5113150 27 20078 -65
22/02/2024 06:53:24 12.82 5.75 9.13 83.76 1009.80 5113747 27 20090 -65
22/02/2024 06:50:59 11.30 5.97 8.98 82.87 1009.50 5112402 27 20781 -67
22/02/2024 06:48:32 12.38 5.25 8.62 83.03 1008.86 5114245 27 20086 -65
22/02/2024 06:46:06 13.48 5.50 9.07 84.31 1009.52 5114631 27 20406 -65
22/02/2024 06:43:40 9.90 5.07 9.21 84.26 1009.80 5115084 27 20054 -66
22/02/2024 06:41:14 10.15 4.63 9.04 83.49 1009.49 5115246 27 20082 -65
22/02/2024 06:38:48 9.70 5.03 9.03 83.75 1009.40 5114742 27 20126 -66
22/02/2024 06:36:21 9.13 5.03 9.29 84.55 1009.81 5113804 27 20054 -65
22/02/2024 06:33:54 12.00 4.90 8.92 84.19 1009.13 5113610 27 20046 -65
22/02/2024 06:31:28 9.77 5.00 9.30 84.83 1009.77 5114629 27 20128 -65
22/02/2024 06:28:49 9.30 4.90 9.31 85.39 1009.73 5112644 27 20075 -66
22/02/2024 06:26:24 11.40 5.32 9.28 84.46 1009.74 5113040 27 20052 -66
22/02/2024 06:23:58 11.35 5.45 9.02 84.23 1009.33 5115074 27 20043 -66
22/02/2024 06:21:33 11.73 5.28 9.01 85.09 1009.29 5115309 27 20579 -66
22/02/2024 06:19:07 14.00 5.60 9.04 84.63 1009.47 5115897 27 20378 -66
22/02/2024 06:16:40 11.55 4.93 9.20 84.98 1009.66 5116485 27 20055 -66
22/02/2024 06:14:15 10.05 5.10 9.05 85.41 1009.45 5114888 27 20047 -65
22/02/2024 06:11:48 11.77 5.30 9.25 84.37 1009.80 5114160 27 20043 -65
22/02/2024 06:09:18 11.13 5.03 9.05 84.38 1009.37 5114349 27 20418 -65
22/02/2024 06:06:53 13.75 5.45 8.98 85.12 1009.29 5114130 27 20471 -65
22/02/2024 06:04:27 13.45 5.53 9.24 84.69 1009.67 5115156 27 20092 -65
22/02/2024 06:02:00 10.48 5.03 9.17 84.70 1009.55 5115036 27 20619 -65
22/02/2024 05:59:34 10.45 4.93 9.17 84.16 1009.45 5115620 27 20169 -65
22/02/2024 05:57:09 11.43 5.47 9.41 84.36 1009.66 5116032 27 20261 -65
22/02/2024 05:54:43 12.10 4.70 9.29 84.13 1009.33 5115222 27 20544 -66
22/02/2024 05:52:17 13.63 5.55 9.49 85.03 1009.69 5115687 27 20051 -66
22/02/2024 05:49:50 10.88 4.97 9.36 85.17 1009.55 5114029 27 20043 -66
22/02/2024 05:47:23 11.82 4.95 9.54 85.06 1009.75 5116051 27 20479 -66
22/02/2024 05:44:57 12.25 4.90 9.33 85.18 1009.40 5116844 27 20075 -66
22/02/2024 05:42:32 11.60 4.80 9.41 85.01 1009.49 5115817 27 20131 -66
22/02/2024 05:40:06 10.82 4.63 9.58 85.14 1009.76 5115089 27 20050 -66
22/02/2024 05:37:38 12.98 5.00 9.29 84.10 1009.23 5115378 27 20054 -66
22/02/2024 05:35:12 11.68 4.93 9.40 84.41 1009.52 5115210 27 20413 -66
22/02/2024 05:32:47 14.75 5.32 9.44 84.72 1009.48 5115266 27 20048 -66
22/02/2024 05:30:19 10.77 5.78 9.60 83.91 1009.75 5116378 27 20044 -66
22/02/2024 05:27:52 11.50 5.32 9.61 84.06 1009.76 5115896 27 20478 -66
22/02/2024 05:25:26 10.93 5.35 9.59 84.18 1009.89 5115565 27 20053 -66
22/02/2024 05:23:01 10.32 4.72 9.46 84.60 1009.77 5117484 27 20054 -66
22/02/2024 05:20:35 12.77 5.20 9.41 84.48 1009.66 5118004 27 20055 -66
22/02/2024 05:18:09 12.07 5.47 9.56 83.56 1009.89 5116582 27 20115 -66
22/02/2024 05:15:44 11.70 5.45 9.60 83.54 1009.90 5115807 27 20174 -66
22/02/2024 05:13:18 11.75 5.97 9.43 84.07 1009.57 5116714 27 20069 -66
22/02/2024 05:10:52 11.15 5.35 9.64 83.64 1009.77 5116132 27 20515 -66
22/02/2024 05:08:26 13.88 6.20 9.59 83.58 1009.57 5117386 27 20047 -66
22/02/2024 05:06:00 13.57 6.35 9.73 84.03 1009.68 5116308 27 20496 -66
22/02/2024 05:03:34 12.27 6.45 9.93 84.57 1009.99 5116920 27 20043 -66
22/02/2024 05:01:09 13.05 5.88 9.76 84.68 1009.58 5116674 27 20176 -66
22/02/2024 04:58:43 14.00 6.28 9.87 84.69 1009.79 5116951 27 20134 -66
22/02/2024 04:56:17 12.70 6.28 9.98 83.80 1009.97 5117216 27 20039 -66
22/02/2024 04:53:51 13.38 7.28 9.83 83.49 1009.64 5117049 27 20051 -66
22/02/2024 04:51:22 11.73 6.82 10.14 82.62 1010.13 5117852 27 20051 -66
22/02/2024 04:48:55 14.75 7.03 9.95 82.48 1009.76 5118757 27 20050 -66
22/02/2024 04:46:30 11.10 6.22 10.01 82.29 1009.75 5119401 27 20056 -66
22/02/2024 04:44:04 13.93 7.25 10.01 82.36 1009.75 5118298 27 20039 -66
22/02/2024 04:41:37 14.88 7.00 10.23 81.52 1010.06 5116863 27 20039 -66
22/02/2024 04:39:11 12.98 5.97 9.88 81.04 1009.46 5117708 27 20047 -66
22/02/2024 04:36:41 12.10 6.30 10.28 81.01 1010.02 5117472 27 20478 -66
22/02/2024 04:34:14 12.23 6.50 10.29 80.73 1010.07 5116693 27 20047 -66
22/02/2024 04:31:48 12.70 6.43 10.15 80.98 1009.73 5118427 27 20058 -66
22/02/2024 04:29:23 11.90 5.63 10.34 81.28 1010.12 5118008 27 20052 -66
22/02/2024 04:26:57 12.73 5.88 10.14 81.10 1009.74 5117281 27 20881 -66
22/02/2024 04:24:32 11.25 5.97 10.34 81.17 1009.97 5118247 27 20047 -66
22/02/2024 04:22:06 14.07 6.60 10.26 80.86 1009.75 5119154 27 20486 -66
22/02/2024 04:19:40 13.77 5.93 10.49 81.05 1010.09 5117698 27 20075 -66
22/02/2024 04:17:15 13.75 6.55 10.47 81.04 1010.16 5119108 27 20539 -66
22/02/2024 04:14:49 11.98 6.63 10.50 81.16 1010.16 5117693 27 20175 -66
22/02/2024 04:12:23 13.73 6.90 10.32 80.91 1009.97 5118077 27 20097 -66
22/02/2024 04:09:57 14.00 6.00 10.52 80.74 1010.27 5118729 27 20379 -66
22/02/2024 04:07:31 12.23 6.40 10.47 80.81 1010.09 5118453 27 20044 -66
22/02/2024 04:05:06 12.77 6.15 10.54 81.18 1010.30 5118271 27 20054 -66
22/02/2024 04:02:39 11.38 5.78 10.29 80.44 1009.88 5119064 27 20052 -66
22/02/2024 04:00:12 13.18 6.47 10.55 80.23 1010.35 5114992 27 20039 -65
22/02/2024 03:57:42 12.52 5.63 10.58 80.54 1010.29 5113756 28 20378 -65
22/02/2024 03:55:14 13.98 6.07 10.37 80.82 1010.02 5113878 28 20046 -66
22/02/2024 03:52:45 12.48 5.68 10.32 80.23 1010.00 5114107 28 20051 -65
22/02/2024 03:50:20 11.43 5.30 10.28 80.27 1010.05 5114425 28 20047 -65
22/02/2024 03:47:54 11.90 5.97 10.49 80.26 1010.36 5114263 28 20047 -65
22/02/2024 03:45:28 11.45 6.03 10.44 79.94 1010.32 5113853 28 20086 -66
22/02/2024 03:43:03 12.13 6.57 10.45 79.86 1010.37 5115285 28 20051 -66
22/02/2024 03:40:37 12.05 6.18 10.19 80.13 1010.05 5113502 28 20072 -66
22/02/2024 03:38:10 12.27 6.50 10.32 80.49 1010.38 5112788 28 20077 -66
22/02/2024 03:35:44 17.67 7.45 10.25 80.36 1010.47 5113895 28 20044 -66
22/02/2024 03:33:18 15.02 7.35 9.97 80.22 1010.25 5114135 28 20054 -66
22/02/2024 03:30:52 15.63 7.28 9.93 80.28 1010.26 5096844 28 20043 -66
22/02/2024 03:28:27 12.60 6.75 10.11 79.72 1010.58 5116350 28 20059 -66
22/02/2024 03:26:01 13.35 7.50 9.88 80.02 1010.11 5115541 28 20074 -66
22/02/2024 03:23:34 18.15 7.20 10.12 79.96 1010.47 5113860 28 20084 -66
22/02/2024 03:20:40 14.82 6.90 10.15 79.75 1010.52 5115134 27 20055 -66
22/02/2024 03:18:05 14.85 7.03 9.87 79.46 1010.02 5114461 27 20051 -66
22/02/2024 03:15:40 13.85 7.32 10.13 80.13 1010.37 5115829 27 20057 -66
22/02/2024 03:13:14 13.60 6.78 10.12 79.98 1010.55 5114907 27 20051 -66
22/02/2024 03:10:48 14.00 6.53 9.90 80.27 1010.23 5115254 27 20082 -65
22/02/2024 03:08:19 14.25 6.32 10.11 79.80 1010.65 5114468 27 20055 -66
22/02/2024 03:05:54 14.13 6.28 9.92 80.21 1010.35 5115115 27 20054 -66
22/02/2024 03:03:28 17.15 6.97 9.86 79.81 1010.19 5113524 27 20101 -67
22/02/2024 03:01:01 14.10 6.72 9.85 79.79 1010.15 5115192 27 20796 -65
22/02/2024 02:58:34 16.50 7.57 10.19 79.37 1010.66 5114706 27 20057 -66
22/02/2024 02:55:58 12.77 6.43 10.01 79.68 1010.33 5113187 27 20054 -65
22/02/2024 02:53:26 13.88 5.82 10.14 79.17 1010.61 5115120 27 20062 -66
22/02/2024 02:50:52 13.13 6.45 10.08 79.06 1010.64 5113579 27 20043 -65
22/02/2024 02:48:23 14.13 6.20 10.18 78.72 1010.82 5114699 27 20057 -66
22/02/2024 02:45:57 14.00 6.50 10.17 79.21 1010.83 5115272 27 20047 -65
22/02/2024 02:43:29 13.30 6.68 9.96 79.37 1010.46 5115169 27 20615 -65
22/02/2024 02:41:03 15.85 7.03 10.00 79.39 1010.63 5114936 27 20043 -67
22/02/2024 02:38:37 12.75 6.22 10.00 78.61 1010.68 5115484 27 20096 -66
22/02/2024 02:36:11 13.05 6.70 10.02 78.86 1010.66 5114207 27 20485 -66
22/02/2024 02:33:44 12.77 6.82 10.24 78.65 1010.98 5114522 27 20048 -67
22/02/2024 02:31:19 15.73 6.93 10.22 78.53 1010.90 5116194 27 20056 -66
22/02/2024 02:28:53 13.32 6.93 10.21 79.01 1010.99 5114175 27 20047 -67
22/02/2024 02:26:27 13.73 6.90 10.27 78.31 1011.09 5115492 27 20051 -66
22/02/2024 02:24:01 16.35 6.68 10.27 78.66 1011.05 5114305 27 20050 -66
22/02/2024 02:21:36 14.55 7.43 10.07 78.16 1010.80 5114358 27 20044 -66
22/02/2024 02:19:10 14.70 7.55 10.32 78.33 1011.19 5115404 27 20060 -66
22/02/2024 02:16:44 12.18 7.07 10.12 77.49 1010.84 5115216 27 20047 -66
22/02/2024 02:14:16 14.80 7.47 10.17 77.73 1010.86 5116059 27 20047 -66
22/02/2024 02:11:50 14.57 7.50 10.20 77.74 1010.87 5114042 27 20047 -66
22/02/2024 02:09:24 14.00 7.30 10.47 77.72 1011.26 5114863 27 20692 -66
22/02/2024 02:06:57 15.23 7.35 10.51 77.46 1011.23 5115363 27 20046 -66
22/02/2024 02:04:26 14.30 6.97 10.34 77.43 1010.89 5115840 27 20051 -66
22/02/2024 02:02:00 15.50 7.03 10.43 77.24 1010.97 5115284 27 20047 -66
22/02/2024 01:59:34 14.68 7.53 10.70 77.25 1011.38 5115170 27 20443 -66
22/02/2024 01:57:08 15.52 7.57 10.69 77.14 1011.27 5115605 27 20054 -66
22/02/2024 01:54:42 14.60 6.93 10.67 76.96 1011.20 5115658 27 20426 -66
22/02/2024 01:52:15 13.27 6.90 10.62 76.39 1011.01 5116840 27 20047 -66
22/02/2024 01:49:49 13.43 7.38 10.82 76.60 1011.40 5115346 27 20084 -66
22/02/2024 01:47:24 15.23 7.82 10.84 76.92 1011.44 5116869 27 20059 -66
22/02/2024 01:44:57 16.08 7.50 10.84 76.65 1011.41 5115745 27 20177 -66
22/02/2024 01:42:31 15.70 8.15 10.80 76.62 1011.35 5115783 27 20418 -66
22/02/2024 01:40:05 13.93 6.93 10.87 76.36 1011.36 5115779 27 20043 -66
22/02/2024 01:37:35 15.80 7.45 10.90 75.93 1011.41 5114354 27 20043 -66
22/02/2024 01:35:10 13.95 7.13 10.90 76.39 1011.41 5116410 27 20046 -66
22/02/2024 01:32:43 16.38 7.60 10.93 76.47 1011.47 5116460 27 20048 -66
22/02/2024 01:30:17 13.32 6.97 10.79 76.31 1011.12 5116484 27 20066 -67
22/02/2024 01:27:39 16.67 7.47 10.89 76.48 1011.24 5115283 27 20047 -67
22/02/2024 01:25:12 15.15 7.30 10.78 76.47 1011.07 5116067 27 20043 -67
22/02/2024 01:22:46 15.63 7.45 10.87 76.27 1011.29 5115776 27 20131 -66
22/02/2024 01:20:18 14.75 7.55 10.72 76.14 1011.11 5116587 27 20047 -67
22/02/2024 01:17:52 13.30 7.15 10.88 75.69 1011.40 5115377 27 20087 -67
22/02/2024 01:15:25 14.32 7.03 10.77 75.27 1011.30 5116392 27 20130 -66
22/02/2024 01:12:58 14.18 7.47 10.68 75.49 1011.14 5116850 27 20051 -67
22/02/2024 01:10:31 15.43 8.15 10.87 75.58 1011.53 5115871 27 20047 -66
22/02/2024 01:08:05 16.73 7.22 10.69 75.28 1011.31 5116010 27 20050 -67
22/02/2024 01:05:39 15.18 7.63 10.79 74.98 1011.48 5116079 27 20619 -67
22/02/2024 01:03:14 14.07 7.25 10.82 74.26 1011.54 5117526 27 20059 -67
22/02/2024 01:00:48 16.48 8.50 10.74 74.28 1011.46 5118084 27 20547 -67
22/02/2024 00:58:22 14.05 7.95 10.84 73.90 1011.56 5116406 27 20128 -67
22/02/2024 00:55:56 15.98 8.45 10.87 74.39 1011.60 5117167 27 20561 -67
22/02/2024 00:53:30 16.35 7.93 10.87 74.08 1011.68 5117100 27 20047 -67
22/02/2024 00:51:04 15.45 7.70 10.86 73.74 1011.69 5117187 27 20047 -66
22/02/2024 00:48:38 16.48 7.68 10.68 73.95 1011.38 5116392 27 20044 -67
22/02/2024 00:46:11 15.85 7.57 10.67 73.71 1011.33 5118620 27 20055 -67
22/02/2024 00:43:42 16.17 8.23 10.87 73.58 1011.68 5118046 27 20052 -67
22/02/2024 00:41:15 16.38 8.13 10.90 73.87 1011.67 5117919 27 20086 -66
22/02/2024 00:38:45 15.75 7.78 10.88 73.50 1011.70 5116831 27 20048 -67
22/02/2024 00:36:19 16.27 9.23 10.95 73.78 1011.76 5116477 27 20135 -67
22/02/2024 00:33:54 16.08 9.00 10.81 73.61 1011.49 5115606 27 20052 -67
22/02/2024 00:31:28 16.02 9.00 11.02 73.50 1011.82 5116356 27 20047 -67
22/02/2024 00:29:02 16.85 9.55 11.05 73.79 1011.83 5118469 27 20054 -66
22/02/2024 00:26:36 15.73 9.02 11.08 74.10 1011.87 5117024 27 20044 -66
22/02/2024 00:24:11 17.80 9.30 11.08 73.68 1011.79 5111655 28 20080 -66
22/02/2024 00:21:45 18.08 9.40 11.12 74.19 1011.84 5113569 28 20089 -66
22/02/2024 00:19:16 17.15 9.38 10.93 74.02 1011.51 5112716 28 20043 -66
22/02/2024 00:16:50 16.63 9.23 11.05 74.29 1011.72 5112979 28 20051 -66
22/02/2024 00:14:24 18.60 9.15 11.03 74.14 1011.79 5115378 28 20051 -67
22/02/2024 00:11:58 19.63 10.32 11.14 74.11 1011.86 5114015 28 20043 -66
22/02/2024 00:09:32 18.75 9.75 11.24 74.42 1012.04 5113910 28 20410 -67
22/02/2024 00:07:05 18.05 9.50 11.05 73.73 1011.67 5113347 28 20061 -67
22/02/2024 00:04:38 18.33 9.75 11.09 74.40 1011.63 5113722 28 20543 -69
22/02/2024 00:02:13 17.30 8.88 11.13 74.29 1011.74 5113405 28 20461 -69
Time SDS_P1 SDS_P2 BME280_temperature BME280_humidity BME280_pressure Samples Min_cycle Max_cycle Signal